sensor_id;sensor_type;location;lat;lon;timestamp;pressure;altitude;pressure_sealevel;temperature;humidity
4767;BME280;2397;53.576;9.746;2022-08-21T14:01:00;101408.34;;;28.17;35.34
4767;BME280;2397;53.576;9.746;2022-08-21T14:06:36;101442.22;;;26.78;35.52
4767;BME280;2397;53.576;9.746;2022-08-21T14:14:32;101450.28;;;28.83;35.21
4767;BME280;2397;53.576;9.746;2022-08-21T14:17:26;101442.59;;;29.28;30.61
4767;BME280;2397;53.576;9.746;2022-08-21T14:19:51;101451.97;;;27.95;32.83
4767;BME280;2397;53.576;9.746;2022-08-21T14:25:10;101456.00;;;27.47;34.74
4767;BME280;2397;53.576;9.746;2022-08-21T14:27:44;101449.75;;;27.08;35.47
4767;BME280;2397;53.576;9.746;2022-08-21T14:30:35;101450.97;;;26.58;38.61
4767;BME280;2397;53.576;9.746;2022-08-21T14:33:02;101452.44;;;27.27;35.08
4767;BME280;2397;53.576;9.746;2022-08-21T14:35:27;101451.63;;;27.25;35.50
4767;BME280;2397;53.576;9.746;2022-08-21T14:37:53;101455.28;;;27.43;34.46
4767;BME280;2397;53.576;9.746;2022-08-21T14:40:21;101454.59;;;27.97;36.90
4767;BME280;2397;53.576;9.746;2022-08-21T14:42:47;101451.13;;;30.61;30.32
4767;BME280;2397;53.576;9.746;2022-08-21T14:45:18;101445.00;;;31.47;29.47
4767;BME280;2397;53.576;9.746;2022-08-21T14:47:44;101439.25;;;32.88;24.53
4767;BME280;2397;53.576;9.746;2022-08-21T14:50:12;101442.34;;;34.07;24.08
4767;BME280;2397;53.576;9.746;2022-08-21T14:52:37;101438.66;;;33.84;23.45
4767;BME280;2397;53.576;9.746;2022-08-21T14:55:04;101447.00;;;33.31;23.74
4767;BME280;2397;53.576;9.746;2022-08-21T14:57:30;101445.41;;;32.10;25.57
4767;BME280;2397;53.576;9.746;2022-08-21T14:59:56;101438.06;;;32.79;25.06
4767;BME280;2397;53.576;9.746;2022-08-21T15:02:21;101436.69;;;33.75;24.28
4767;BME280;2397;53.576;9.746;2022-08-21T15:04:47;101436.91;;;33.59;22.96
4767;BME280;2397;53.576;9.746;2022-08-21T15:07:12;101438.97;;;34.52;22.64
4767;BME280;2397;53.576;9.746;2022-08-21T15:09:37;101442.72;;;35.19;21.54
4767;BME280;2397;53.576;9.746;2022-08-21T15:12:04;101440.75;;;35.32;21.64
4767;BME280;2397;53.576;9.746;2022-08-21T15:14:34;101446.28;;;35.42;21.04
4767;BME280;2397;53.576;9.746;2022-08-21T15:17:00;101432.84;;;34.50;23.95
4767;BME280;2397;53.576;9.746;2022-08-21T15:19:26;101439.34;;;34.59;22.97
4767;BME280;2397;53.576;9.746;2022-08-21T15:21:52;101442.00;;;32.35;25.23
4767;BME280;2397;53.576;9.746;2022-08-21T15:24:18;101439.06;;;30.98;26.98
4767;BME280;2397;53.576;9.746;2022-08-21T15:26:44;101441.94;;;29.72;30.76
4767;BME280;2397;53.576;9.746;2022-08-21T15:29:10;101441.59;;;28.62;30.72
4767;BME280;2397;53.576;9.746;2022-08-21T15:31:35;101441.25;;;28.16;31.34
4767;BME280;2397;53.576;9.746;2022-08-21T15:34:01;101450.84;;;27.44;33.13
4767;BME280;2397;53.576;9.746;2022-08-21T15:36:26;101445.56;;;26.82;33.98
4767;BME280;2397;53.576;9.746;2022-08-21T15:38:51;101438.91;;;26.51;34.19
4767;BME280;2397;53.576;9.746;2022-08-21T15:41:17;101443.22;;;26.54;34.80
4767;BME280;2397;53.576;9.746;2022-08-21T15:43:47;101439.00;;;26.05;35.85
4767;BME280;2397;53.576;9.746;2022-08-21T15:46:14;101448.22;;;25.95;36.86
4767;BME280;2397;53.576;9.746;2022-08-21T15:48:41;101446.13;;;26.05;38.79
4767;BME280;2397;53.576;9.746;2022-08-21T15:51:06;101448.28;;;25.93;37.64
4767;BME280;2397;53.576;9.746;2022-08-21T15:53:32;101453.34;;;26.01;38.74
4767;BME280;2397;53.576;9.746;2022-08-21T15:56:01;101448.91;;;26.02;38.02
4767;BME280;2397;53.576;9.746;2022-08-21T15:58:27;101446.66;;;25.91;37.12
4767;BME280;2397;53.576;9.746;2022-08-21T16:00:52;101441.06;;;25.75;37.31
4767;BME280;2397;53.576;9.746;2022-08-21T16:03:18;101449.28;;;25.69;37.08
4767;BME280;2397;53.576;9.746;2022-08-21T16:05:47;101443.88;;;25.48;37.96
4767;BME280;2397;53.576;9.746;2022-08-21T16:08:17;101444.06;;;25.18;38.03
4767;BME280;2397;53.576;9.746;2022-08-21T16:10:43;101442.47;;;24.89;39.92
4767;BME280;2397;53.576;9.746;2022-08-21T16:13:16;101441.69;;;24.85;39.50
4767;BME280;2397;53.576;9.746;2022-08-21T16:15:43;101450.06;;;24.98;39.20
4767;BME280;2397;53.576;9.746;2022-08-21T16:18:09;101450.56;;;24.84;38.73
4767;BME280;2397;53.576;9.746;2022-08-21T16:20:35;101454.06;;;24.58;42.74
4767;BME280;2397;53.576;9.746;2022-08-21T16:23:00;101447.16;;;24.54;41.34
4767;BME280;2397;53.576;9.746;2022-08-21T16:25:25;101451.69;;;24.50;39.94
4767;BME280;2397;53.576;9.746;2022-08-21T16:27:55;101454.63;;;23.86;47.93
4767;BME280;2397;53.576;9.746;2022-08-21T16:30:22;101453.97;;;23.17;50.21
4767;BME280;2397;53.576;9.746;2022-08-21T16:32:48;101451.41;;;23.75;45.76
4767;BME280;2397;53.576;9.746;2022-08-21T16:35:15;101456.97;;;24.24;45.24
4767;BME280;2397;53.576;9.746;2022-08-21T16:37:41;101454.31;;;23.97;45.57
4767;BME280;2397;53.576;9.746;2022-08-21T16:40:07;101454.00;;;24.06;47.69
4767;BME280;2397;53.576;9.746;2022-08-21T16:42:35;101455.25;;;24.23;48.00
4767;BME280;2397;53.576;9.746;2022-08-21T16:45:04;101463.22;;;24.21;53.17
4767;BME280;2397;53.576;9.746;2022-08-21T16:47:30;101461.53;;;23.30;52.29
4767;BME280;2397;53.576;9.746;2022-08-21T16:49:55;101450.97;;;22.96;57.27
4767;BME280;2397;53.576;9.746;2022-08-21T16:52:21;101451.41;;;23.13;56.74
4767;BME280;2397;53.576;9.746;2022-08-21T16:54:46;101446.56;;;22.96;57.00
4767;BME280;2397;53.576;9.746;2022-08-21T16:57:11;101457.38;;;23.81;50.51
4767;BME280;2397;53.576;9.746;2022-08-21T16:59:37;101454.56;;;24.16;51.09
4767;BME280;2397;53.576;9.746;2022-08-21T17:02:03;101461.44;;;24.22;48.59
4767;BME280;2397;53.576;9.746;2022-08-21T17:04:28;101459.72;;;24.20;50.24
4767;BME280;2397;53.576;9.746;2022-08-21T17:06:55;101459.66;;;23.94;50.84
4767;BME280;2397;53.576;9.746;2022-08-21T17:09:20;101457.53;;;23.77;50.90
4767;BME280;2397;53.576;9.746;2022-08-21T17:11:47;101462.19;;;23.67;51.94
4767;BME280;2397;53.576;9.746;2022-08-21T17:14:17;101458.19;;;23.54;54.06
4767;BME280;2397;53.576;9.746;2022-08-21T17:16:47;101459.84;;;23.58;53.38
4767;BME280;2397;53.576;9.746;2022-08-21T17:19:14;101464.03;;;23.35;55.02
4767;BME280;2397;53.576;9.746;2022-08-21T17:21:39;101465.41;;;23.48;55.11
4767;BME280;2397;53.576;9.746;2022-08-21T17:24:05;101464.72;;;23.09;55.46
4767;BME280;2397;53.576;9.746;2022-08-21T17:26:30;101464.97;;;23.00;57.04
4767;BME280;2397;53.576;9.746;2022-08-21T17:28:56;101475.56;;;22.98;59.02
4767;BME280;2397;53.576;9.746;2022-08-21T17:31:21;101472.72;;;23.06;58.90
4767;BME280;2397;53.576;9.746;2022-08-21T17:33:50;101473.66;;;23.03;59.76
4767;BME280;2397;53.576;9.746;2022-08-21T17:36:18;101476.94;;;22.80;62.26
4767;BME280;2397;53.576;9.746;2022-08-21T17:38:44;101479.66;;;22.75;63.33
4767;BME280;2397;53.576;9.746;2022-08-21T17:41:10;101481.16;;;22.51;64.79
4767;BME280;2397;53.576;9.746;2022-08-21T17:43:37;101481.81;;;22.61;65.58
4767;BME280;2397;53.576;9.746;2022-08-21T17:46:02;101483.56;;;22.60;64.97
4767;BME280;2397;53.576;9.746;2022-08-21T17:48:28;101485.72;;;22.44;66.09
4767;BME280;2397;53.576;9.746;2022-08-21T17:50:53;101492.00;;;22.39;66.78
4767;BME280;2397;53.576;9.746;2022-08-21T17:53:18;101490.50;;;22.27;67.48
4767;BME280;2397;53.576;9.746;2022-08-21T17:55:44;101504.47;;;22.32;67.85
4767;BME280;2397;53.576;9.746;2022-08-21T17:58:12;101498.06;;;22.03;68.63
4767;BME280;2397;53.576;9.746;2022-08-21T18:00:38;101497.09;;;22.07;68.77
4767;BME280;2397;53.576;9.746;2022-08-21T18:03:06;101500.44;;;22.14;70.21
4767;BME280;2397;53.576;9.746;2022-08-21T18:05:36;101497.63;;;21.83;71.02
4767;BME280;2397;53.576;9.746;2022-08-21T18:08:02;101503.28;;;21.64;71.54
4767;BME280;2397;53.576;9.746;2022-08-21T18:10:27;101506.50;;;21.79;71.97
4767;BME280;2397;53.576;9.746;2022-08-21T18:12:53;101502.22;;;21.73;71.65
4767;BME280;2397;53.576;9.746;2022-08-21T18:15:19;101512.88;;;21.67;70.77
4767;BME280;2397;53.576;9.746;2022-08-21T18:17:48;101513.19;;;21.53;72.27
4767;BME280;2397;53.576;9.746;2022-08-21T18:20:15;101512.25;;;21.54;71.83
4767;BME280;2397;53.576;9.746;2022-08-21T18:22:41;101517.50;;;21.55;71.53
4767;BME280;2397;53.576;9.746;2022-08-21T18:25:06;101504.63;;;21.40;72.14
4767;BME280;2397;53.576;9.746;2022-08-21T18:27:32;101516.91;;;21.41;72.61
4767;BME280;2397;53.576;9.746;2022-08-21T18:29:58;101513.59;;;21.30;73.56
4767;BME280;2397;53.576;9.746;2022-08-21T18:32:25;101525.63;;;20.96;72.75
4767;BME280;2397;53.576;9.746;2022-08-21T18:34:53;101530.31;;;21.27;73.52
4767;BME280;2397;53.576;9.746;2022-08-21T18:37:20;101531.44;;;21.14;74.01
4767;BME280;2397;53.576;9.746;2022-08-21T18:39:45;101528.97;;;21.04;73.35
4767;BME280;2397;53.576;9.746;2022-08-21T18:42:12;101541.13;;;20.57;76.23
4767;BME280;2397;53.576;9.746;2022-08-21T18:44:40;101538.84;;;20.32;78.84
4767;BME280;2397;53.576;9.746;2022-08-21T18:47:31;101547.03;;;20.12;81.25
4767;BME280;2397;53.576;9.746;2022-08-21T18:50:03;101544.56;;;19.98;82.73
4767;BME280;2397;53.576;9.746;2022-08-21T18:52:28;101542.75;;;20.04;82.39
4767;BME280;2397;53.576;9.746;2022-08-21T18:54:54;101543.66;;;19.99;81.81
4767;BME280;2397;53.576;9.746;2022-08-21T18:57:27;101547.44;;;19.77;82.60
4767;BME280;2397;53.576;9.746;2022-08-21T18:59:53;101552.53;;;19.92;83.70
4767;BME280;2397;53.576;9.746;2022-08-21T19:02:18;101550.28;;;19.55;84.48
4767;BME280;2397;53.576;9.746;2022-08-21T19:04:44;101549.38;;;19.59;84.34
4767;BME280;2397;53.576;9.746;2022-08-21T19:07:12;101557.28;;;19.58;84.24
4767;BME280;2397;53.576;9.746;2022-08-21T19:09:37;101557.34;;;19.53;84.14
4767;BME280;2397;53.576;9.746;2022-08-21T19:12:03;101560.19;;;19.28;85.76
4767;BME280;2397;53.576;9.746;2022-08-21T19:14:29;101555.97;;;19.12;87.12
4767;BME280;2397;53.576;9.746;2022-08-21T19:16:54;101561.34;;;18.98;87.83
4767;BME280;2397;53.576;9.746;2022-08-21T19:19:20;101568.41;;;18.91;88.27
4767;BME280;2397;53.576;9.746;2022-08-21T19:21:45;101571.88;;;18.97;88.46
4767;BME280;2397;53.576;9.746;2022-08-21T19:24:12;101567.56;;;18.86;88.76
4767;BME280;2397;53.576;9.746;2022-08-21T19:26:38;101572.94;;;18.65;89.95
4767;BME280;2397;53.576;9.746;2022-08-21T19:29:06;101572.13;;;18.50;90.82
4767;BME280;2397;53.576;9.746;2022-08-21T19:31:38;101573.84;;;18.59;91.03
4767;BME280;2397;53.576;9.746;2022-08-21T19:36:37;101574.84;;;18.39;92.12
4767;BME280;2397;53.576;9.746;2022-08-21T19:39:03;101567.00;;;18.35;93.25
4767;BME280;2397;53.576;9.746;2022-08-21T19:41:32;101572.28;;;18.29;94.33
4767;BME280;2397;53.576;9.746;2022-08-21T19:44:02;101568.78;;;18.26;94.34
4767;BME280;2397;53.576;9.746;2022-08-21T19:46:33;101567.84;;;18.38;94.79
4767;BME280;2397;53.576;9.746;2022-08-21T19:49:00;101564.34;;;18.39;95.27
4767;BME280;2397;53.576;9.746;2022-08-21T19:51:26;101566.84;;;18.61;93.12
4767;BME280;2397;53.576;9.746;2022-08-21T19:53:53;101566.78;;;18.69;92.64
4767;BME280;2397;53.576;9.746;2022-08-21T19:56:21;101565.78;;;18.91;92.58
4767;BME280;2397;53.576;9.746;2022-08-21T19:58:48;101573.78;;;18.67;93.32
4767;BME280;2397;53.576;9.746;2022-08-21T20:01:15;101570.28;;;18.68;91.45
4767;BME280;2397;53.576;9.746;2022-08-21T20:03:41;101574.28;;;19.18;88.32
4767;BME280;2397;53.576;9.746;2022-08-21T20:06:07;101574.28;;;19.18;87.11
4767;BME280;2397;53.576;9.746;2022-08-21T20:08:33;101575.44;;;18.78;90.20
4767;BME280;2397;53.576;9.746;2022-08-21T20:10:59;101587.69;;;18.81;89.99
4767;BME280;2397;53.576;9.746;2022-08-21T20:13:26;101580.44;;;19.14;86.66
4767;BME280;2397;53.576;9.746;2022-08-21T20:15:52;101584.66;;;19.35;85.72
4767;BME280;2397;53.576;9.746;2022-08-21T20:18:18;101582.75;;;19.46;84.40
4767;BME280;2397;53.576;9.746;2022-08-21T20:20:45;101590.94;;;19.19;84.86
4767;BME280;2397;53.576;9.746;2022-08-21T20:23:10;101587.69;;;18.78;87.69
4767;BME280;2397;53.576;9.746;2022-08-21T20:25:37;101593.28;;;18.21;93.02
4767;BME280;2397;53.576;9.746;2022-08-21T20:28:04;101597.78;;;17.76;96.55
4767;BME280;2397;53.576;9.746;2022-08-21T20:30:30;101596.91;;;17.66;98.43
4767;BME280;2397;53.576;9.746;2022-08-21T20:32:55;101601.25;;;17.73;98.58
4767;BME280;2397;53.576;9.746;2022-08-21T20:35:20;101596.91;;;17.77;99.34
4767;BME280;2397;53.576;9.746;2022-08-21T20:37:46;101603.03;;;17.60;99.79
4767;BME280;2397;53.576;9.746;2022-08-21T20:40:13;101600.44;;;17.46;100.00
4767;BME280;2397;53.576;9.746;2022-08-21T20:42:41;101603.94;;;17.36;100.00
4767;BME280;2397;53.576;9.746;2022-08-21T20:45:08;101597.78;;;17.60;100.00
4767;BME280;2397;53.576;9.746;2022-08-21T20:47:34;101600.44;;;17.52;100.00
4767;BME280;2397;53.576;9.746;2022-08-21T20:50:04;101605.69;;;17.46;100.00
4767;BME280;2397;53.576;9.746;2022-08-21T20:52:33;101605.69;;;17.38;100.00
4767;BME280;2397;53.576;9.746;2022-08-21T20:55:02;101601.34;;;17.34;100.00
4767;BME280;2397;53.576;9.746;2022-08-21T20:57:37;101609.16;;;17.45;100.00
4767;BME280;2397;53.576;9.746;2022-08-21T21:00:13;101602.16;;;17.66;100.00
4767;BME280;2397;53.576;9.746;2022-08-21T21:03:01;101607.34;;;17.97;100.00
4767;BME280;2397;53.576;9.746;2022-08-21T21:05:34;101612.63;;;17.78;100.00
4767;BME280;2397;53.576;9.746;2022-08-21T21:08:12;101612.63;;;17.77;100.00
4767;BME280;2397;53.576;9.746;2022-08-21T21:10:59;101609.16;;;17.61;100.00
4767;BME280;2397;53.576;9.746;2022-08-21T21:13:27;101607.44;;;17.47;100.00
4767;BME280;2397;53.576;9.746;2022-08-21T21:15:56;101608.28;;;17.54;100.00
4767;BME280;2397;53.576;9.746;2022-08-21T21:18:29;101614.34;;;17.76;100.00
4767;BME280;2397;53.576;9.746;2022-08-21T21:21:02;101617.88;;;17.64;100.00
4767;BME280;2397;53.576;9.746;2022-08-21T21:23:45;101610.03;;;17.52;100.00
4767;BME280;2397;53.576;9.746;2022-08-21T21:26:19;101617.88;;;17.60;100.00
4767;BME280;2397;53.576;9.746;2022-08-21T21:28:50;101610.91;;;17.65;100.00
4767;BME280;2397;53.576;9.746;2022-08-21T21:31:20;101609.88;;;18.23;99.49
4767;BME280;2397;53.576;9.746;2022-08-21T21:33:46;101608.72;;;18.72;96.48
4767;BME280;2397;53.576;9.746;2022-08-21T21:36:27;101608.75;;;18.67;94.12
4767;BME280;2397;53.576;9.746;2022-08-21T21:39:14;101613.44;;;18.03;98.99
4767;BME280;2397;53.576;9.746;2022-08-21T21:44:38;101618.50;;;18.47;97.32
4767;BME280;2397;53.576;9.746;2022-08-21T21:49:57;101619.41;;;18.38;95.10
4767;BME280;2397;53.576;9.746;2022-08-21T21:52:34;101622.16;;;18.05;98.50
4767;BME280;2397;53.576;9.746;2022-08-21T21:55:04;101626.53;;;17.96;100.00
4767;BME280;2397;53.576;9.746;2022-08-21T21:58:07;101624.75;;;18.13;97.61
4767;BME280;2397;53.576;9.746;2022-08-21T22:00:41;101623.09;;;17.73;100.00
4767;BME280;2397;53.576;9.746;2022-08-21T22:03:16;101630.09;;;17.48;100.00
4767;BME280;2397;53.576;9.746;2022-08-21T22:08:28;101631.53;;;18.57;94.81
4767;BME280;2397;53.576;9.746;2022-08-21T22:14:12;101630.06;;;17.96;98.11
4767;BME280;2397;53.576;9.746;2022-08-21T22:16:40;101637.09;;;17.63;100.00
4767;BME280;2397;53.576;9.746;2022-08-21T22:21:57;101634.44;;;17.57;100.00
4767;BME280;2397;53.576;9.746;2022-08-21T22:24:27;101639.69;;;17.59;100.00
4767;BME280;2397;53.576;9.746;2022-08-21T22:27:03;101632.72;;;17.62;100.00
4767;BME280;2397;53.576;9.746;2022-08-21T22:29:53;101644.94;;;17.49;100.00
4767;BME280;2397;53.576;9.746;2022-08-21T22:35:07;101626.59;;;17.59;100.00
4767;BME280;2397;53.576;9.746;2022-08-21T22:37:40;101628.31;;;17.83;100.00
4767;BME280;2397;53.576;9.746;2022-08-21T22:40:09;101632.56;;;18.29;100.00
4767;BME280;2397;53.576;9.746;2022-08-21T22:42:35;101629.06;;;18.33;98.30
4767;BME280;2397;53.576;9.746;2022-08-21T22:45:04;101637.91;;;17.95;100.00
4767;BME280;2397;53.576;9.746;2022-08-21T22:47:36;101631.84;;;17.49;100.00
4767;BME280;2397;53.576;9.746;2022-08-21T22:50:27;101640.59;;;17.25;100.00
4767;BME280;2397;53.576;9.746;2022-08-21T22:52:58;101632.75;;;17.13;100.00
4767;BME280;2397;53.576;9.746;2022-08-21T22:55:41;101628.38;;;17.32;100.00
4767;BME280;2397;53.576;9.746;2022-08-21T22:58:09;101638.84;;;17.23;100.00
4767;BME280;2397;53.576;9.746;2022-08-21T23:03:17;101635.34;;;17.08;100.00
4767;BME280;2397;53.576;9.746;2022-08-21T23:05:44;101644.94;;;17.25;100.00
4767;BME280;2397;53.576;9.746;2022-08-21T23:08:24;101653.66;;;17.08;100.00
4767;BME280;2397;53.576;9.746;2022-08-21T23:10:56;101650.16;;;17.72;100.00
4767;BME280;2397;53.576;9.746;2022-08-21T23:13:22;101648.44;;;17.41;100.00
4767;BME280;2397;53.576;9.746;2022-08-21T23:16:06;101651.03;;;17.08;100.00
4767;BME280;2397;53.576;9.746;2022-08-21T23:21:32;101648.41;;;16.88;100.00
4767;BME280;2397;53.576;9.746;2022-08-21T23:27:12;101646.66;;;16.90;100.00
4767;BME280;2397;53.576;9.746;2022-08-21T23:35:22;101642.25;;;16.80;100.00
4767;BME280;2397;53.576;9.746;2022-08-21T23:41:27;101637.09;;;17.65;100.00
4767;BME280;2397;53.576;9.746;2022-08-21T23:49:39;101636.22;;;17.44;100.00
4767;BME280;2397;53.576;9.746;2022-08-21T23:52:14;101637.94;;;17.67;100.00
